Time;durP1;ratioP1;P1;durP2;ratioP2;P2;SDS_P1;SDS_P2;PMS_P1;PMS_P2;Temp;Humidity;BMP_temperature;BMP_pressure;BME280_temperature;BME280_humidity;BME280_pressure;Samples;Min_cycle;Max_cycle;Signal;HPM_P1;HPM_P2
2022/09/13 00:01:40;;;;;;;4.60;4.20;;;;;;;19.65;48.04;99306.84;5050231;28;20101;-38
2022/09/13 00:04:05;;;;;;;5.05;3.88;;;;;;;19.65;48.26;99304.94;5050293;28;20139;-37
2022/09/13 00:06:31;;;;;;;4.40;4.00;;;;;;;19.77;47.60;99301.97;5050421;28;20398;-37
2022/09/13 00:08:57;;;;;;;4.38;3.97;;;;;;;19.50;48.60;99308.47;5048790;28;20036;-37
2022/09/13 00:11:27;;;;;;;5.95;4.10;;;;;;;19.47;48.17;99305.50;5053570;28;20025;-37
2022/09/13 00:13:54;;;;;;;4.18;3.78;;;;;;;19.45;48.30;99299.59;5053851;28;20028;-37
2022/09/13 00:16:23;;;;;;;4.40;4.00;;;;;;;19.43;48.19;99296.34;5054092;28;20105;-36
2022/09/13 00:18:49;;;;;;;4.72;4.32;;;;;;;19.18;48.36;99292.59;5054042;28;20044;-37
2022/09/13 00:21:16;;;;;;;4.88;4.07;;;;;;;19.59;47.90;99306.03;5053836;28;20035;-37
2022/09/13 00:23:52;;;;;;;4.70;4.13;;;;;;;19.61;47.61;99297.66;5053957;28;20033;-37
2022/09/13 00:26:24;;;;;;;7.00;4.00;;;;;;;19.62;47.32;99299.28;5052530;28;20029;-37
2022/09/13 00:28:55;;;;;;;4.53;4.13;;;;;;;19.13;48.26;99285.34;5053726;28;20481;-37
2022/09/13 00:31:22;;;;;;;4.45;3.90;;;;;;;19.31;48.13;99297.44;5053369;28;20412;-36
2022/09/13 00:33:48;;;;;;;4.43;4.03;;;;;;;18.88;49.21;99278.03;5053547;28;20056;-36
2022/09/13 00:36:16;;;;;;;4.15;3.75;;;;;;;19.22;48.15;99288.28;5053680;28;20083;-36
2022/09/13 00:38:42;;;;;;;4.15;3.75;;;;;;;19.24;48.21;99280.72;5053337;28;20079;-36
2022/09/13 00:41:12;;;;;;;4.35;3.78;;;;;;;19.07;48.73;99289.09;5053199;28;20033;-37
2022/09/13 00:43:57;;;;;;;4.40;4.00;;;;;;;19.56;47.56;99287.69;5053244;28;20107;-36
2022/09/13 00:46:46;;;;;;;4.43;3.72;;;;;;;19.38;48.13;99283.69;5052818;28;20020;-36
2022/09/13 00:49:18;;;;;;;4.13;3.80;;;;;;;19.45;48.16;99281.50;5053629;28;20033;-36
2022/09/13 00:51:51;;;;;;;4.22;3.67;;;;;;;19.45;47.98;99289.59;5053152;28;20029;-37
2022/09/13 00:54:21;;;;;;;4.63;3.75;;;;;;;19.19;48.69;99282.63;5053442;28;20051;-37
2022/09/13 00:56:51;;;;;;;4.80;3.78;;;;;;;19.07;49.03;99289.09;5053354;28;20029;-37
2022/09/13 00:59:34;;;;;;;3.80;3.50;;;;;;;19.13;48.93;99277.25;5053197;28;20613;-37
2022/09/13 01:02:02;;;;;;;4.00;3.60;;;;;;;19.10;49.02;99279.69;5052853;28;20025;-36
2022/09/13 01:04:31;;;;;;;4.38;3.40;;;;;;;18.91;49.62;99276.72;5053120;28;20033;-36
2022/09/13 01:07:01;;;;;;;6.03;3.67;;;;;;;19.02;49.36;99272.94;5053123;28;20029;-36
2022/09/13 01:09:28;;;;;;;4.00;3.50;;;;;;;19.25;48.73;99273.47;5052751;28;20033;-36
2022/09/13 01:12:02;;;;;;;4.55;3.60;;;;;;;19.27;48.98;99280.19;5052950;28;20112;-37
2022/09/13 01:14:28;;;;;;;5.18;3.80;;;;;;;19.21;49.08;99283.97;5052462;28;20063;-37
2022/09/13 01:16:53;;;;;;;3.85;3.45;;;;;;;19.23;49.02;99286.38;5053127;28;20061;-37
2022/09/13 01:19:19;;;;;;;4.40;3.10;;;;;;;19.27;49.14;99284.78;5052727;28;20037;-37
2022/09/13 01:22:09;;;;;;;3.50;3.20;;;;;;;18.87;50.17;99273.75;5052264;28;20029;-37
2022/09/13 01:24:43;;;;;;;3.90;3.50;;;;;;;19.13;49.56;99276.41;5052498;28;20362;-37
2022/09/13 01:27:32;;;;;;;4.40;3.63;;;;;;;18.93;50.07;99283.44;5053049;28;20068;-37
2022/09/13 01:30:18;;;;;;;3.53;3.22;;;;;;;19.00;50.01;99283.19;5052568;28;20021;-37
2022/09/13 01:33:08;;;;;;;4.78;3.30;;;;;;;18.80;50.43;99278.59;5053069;28;20016;-37
2022/09/13 01:35:55;;;;;;;4.30;3.40;;;;;;;18.96;49.90;99279.41;5052446;28;20021;-36
2022/09/13 01:38:26;;;;;;;3.60;3.30;;;;;;;19.02;49.97;99274.81;5052569;28;20032;-36
2022/09/13 01:41:18;;;;;;;4.40;3.50;;;;;;;18.80;49.99;99275.91;5052663;28;20039;-36
2022/09/13 01:44:05;;;;;;;3.58;3.22;;;;;;;18.91;49.62;99266.72;5052356;28;20511;-37
2022/09/13 01:46:53;;;;;;;3.92;3.40;;;;;;;19.02;49.40;99256.78;5052150;28;20025;-37
2022/09/13 01:49:30;;;;;;;3.90;3.40;;;;;;;19.30;49.01;99259.94;5052658;28;20039;-37
2022/09/13 01:52:21;;;;;;;4.43;3.40;;;;;;;19.07;49.72;99272.13;5052112;28;20025;-36
2022/09/13 01:55:37;;;;;;;4.85;3.40;;;;;;;18.39;51.38;99265.06;5052310;28;20035;-36
2022/09/13 01:58:47;;;;;;;5.28;3.70;;;;;;;18.59;51.30;99280.44;5042920;28;20029;-37
2022/09/13 02:01:38;;;;;;;3.35;3.05;;;;;;;18.91;50.29;99272.13;5051228;28;20519;-37
2022/09/13 02:04:20;;;;;;;4.00;3.30;;;;;;;18.59;51.33;99269.66;5071690;28;20115;-36
2022/09/13 02:06:54;;;;;;;4.93;4.20;;;;;;;18.69;50.31;99258.88;5071208;28;20036;-37
2022/09/13 02:09:26;;;;;;;9.32;8.40;;;;;;;18.47;51.32;99275.28;5071771;28;20037;-36
2022/09/13 02:12:00;;;;;;;4.70;3.30;;;;;;;18.81;50.35;99266.75;5071801;28;20039;-36
2022/09/13 02:14:38;;;;;;;4.07;3.10;;;;;;;18.58;50.97;99264.53;5071565;28;20036;-36
2022/09/13 02:17:08;;;;;;;5.68;3.53;;;;;;;18.60;50.68;99263.19;5071113;28;20032;-36
2022/09/13 02:19:42;;;;;;;3.65;3.35;;;;;;;18.70;50.48;99251.63;5071616;28;20040;-37
2022/09/13 02:22:11;;;;;;;5.38;3.30;;;;;;;18.56;51.02;99256.69;5071520;28;20031;-37
2022/09/13 02:24:44;;;;;;;4.15;3.58;;;;;;;18.50;51.10;99255.88;5071721;28;20020;-37
2022/09/13 02:27:15;;;;;;;3.67;3.30;;;;;;;18.66;50.88;99256.72;5071511;28;20032;-38
2022/09/13 02:29:44;;;;;;;4.22;3.20;;;;;;;18.61;50.98;99253.22;5071647;28;20028;-37
2022/09/13 02:32:17;;;;;;;4.28;3.20;;;;;;;18.46;50.95;99260.19;5071559;28;20112;-37
2022/09/13 02:34:54;;;;;;;4.57;3.28;;;;;;;18.56;50.99;99262.94;5070525;28;20461;-37
2022/09/13 02:37:22;;;;;;;3.65;3.25;;;;;;;18.57;50.87;99266.41;5071700;28;20035;-37
2022/09/13 02:39:55;;;;;;;6.10;3.78;;;;;;;18.71;50.53;99261.31;5071163;28;20035;-38
2022/09/13 02:42:28;;;;;;;3.63;3.33;;;;;;;18.70;50.38;99257.81;5071199;28;20028;-37
2022/09/13 02:44:57;;;;;;;4.28;3.33;;;;;;;18.48;50.84;99258.03;5071416;28;20020;-37
2022/09/13 02:47:31;;;;;;;4.90;3.55;;;;;;;18.87;49.70;99262.97;5071395;28;20101;-37
2022/09/13 02:50:27;;;;;;;4.60;3.50;;;;;;;18.43;50.55;99260.75;5070767;28;20027;-36
2022/09/13 02:53:13;;;;;;;5.05;3.33;;;;;;;18.35;50.62;99267.47;5067575;28;20044;-37
2022/09/13 02:56:03;;;;;;;3.67;3.30;;;;;;;18.10;50.96;99275.47;5071324;28;20510;-37
2022/09/13 02:58:53;;;;;;;6.13;3.53;;;;;;;18.29;50.38;99275.78;5071109;28;20519;-38
2022/09/13 03:01:20;;;;;;;4.57;3.45;;;;;;;18.42;49.99;99261.81;5070687;28;20029;-38
2022/09/13 03:03:46;;;;;;;4.20;3.50;;;;;;;18.37;50.34;99269.88;5070856;28;20035;-37
2022/09/13 03:06:12;;;;;;;4.15;3.75;;;;;;;18.22;50.10;99273.38;5070858;28;20012;-36
2022/09/13 03:08:37;;;;;;;48.58;33.70;;;;;;;18.56;49.91;99268.31;5070702;28;20024;-36
2022/09/13 03:11:06;;;;;;;108.00;67.18;;;;;;;18.87;49.01;99276.44;5070651;28;20399;-36
2022/09/13 03:13:36;;;;;;;5.53;3.70;;;;;;;18.61;49.09;99283.66;5070706;28;20135;-37
2022/09/13 03:17:09;;;;;;;4.20;3.80;;;;;;;18.34;49.73;99289.28;5070982;28;20040;-37
2022/09/13 03:19:56;;;;;;;4.10;3.50;;;;;;;18.56;49.25;99280.94;5008823;28;20196;-36
2022/09/13 03:22:42;;;;;;;4.00;3.28;;;;;;;18.85;48.14;99284.00;5008634;28;20065;-36
2022/09/13 03:25:23;;;;;;;3.70;3.40;;;;;;;18.75;48.76;99284.78;5055004;28;20036;-37
2022/09/13 03:28:04;;;;;;;4.43;3.67;;;;;;;18.61;48.71;99278.28;5071095;28;20516;-37
2022/09/13 03:30:34;;;;;;;3.70;3.40;;;;;;;18.44;49.69;99291.19;5070746;28;20125;-37
2022/09/13 03:33:11;;;;;;;7.00;3.60;;;;;;;18.22;49.70;99292.22;5070570;28;20025;-37
2022/09/13 03:36:11;;;;;;;4.88;3.55;;;;;;;18.15;50.49;99291.66;5070603;28;20107;-38
2022/09/13 03:39:05;;;;;;;4.63;3.40;;;;;;;18.37;49.35;99280.66;5070859;28;20039;-36
2022/09/13 03:41:36;;;;;;;5.20;3.78;;;;;;;18.38;50.12;99295.75;5070932;28;20028;-36
2022/09/13 03:44:07;;;;;;;5.10;3.70;;;;;;;17.80;51.48;99306.56;5070445;28;20025;-36
2022/09/13 03:46:38;;;;;;;4.65;3.58;;;;;;;18.07;51.34;99294.84;5074337;28;20024;-36
2022/09/13 03:49:09;;;;;;;4.22;3.67;;;;;;;18.07;50.88;99297.53;5073382;28;20016;-36
2022/09/13 03:51:35;;;;;;;5.70;4.68;;;;;;;18.41;50.03;99303.31;5074289;28;20103;-37
2022/09/13 03:54:09;;;;;;;6.13;4.00;;;;;;;18.16;50.98;99298.63;5074195;28;20029;-35
2022/09/13 03:56:34;;;;;;;7.88;3.80;;;;;;;18.04;51.21;99300.75;5074208;28;20464;-37
2022/09/13 03:59:00;;;;;;;5.43;3.65;;;;;;;17.78;52.27;99292.53;5074462;28;20142;-36
2022/09/13 04:01:26;;;;;;;4.80;3.75;;;;;;;18.28;50.96;99307.31;5074565;28;20083;-36
2022/09/13 04:03:52;;;;;;;4.15;3.75;;;;;;;18.21;50.80;99303.25;5073870;28;20035;-36
2022/09/13 04:06:17;;;;;;;8.07;3.95;;;;;;;18.46;50.52;99305.19;5074546;28;20024;-36
2022/09/13 04:08:43;;;;;;;5.18;3.78;;;;;;;18.39;50.61;99293.84;5073874;28;20032;-36
2022/09/13 04:11:09;;;;;;;4.47;3.83;;;;;;;18.27;50.40;99302.19;5074124;28;20029;-37
2022/09/13 04:13:35;;;;;;;4.60;3.80;;;;;;;18.15;51.00;99300.53;5074178;28;20025;-37
2022/09/13 04:16:02;;;;;;;4.22;3.70;;;;;;;18.45;49.78;99303.56;5073909;28;20024;-37
2022/09/13 04:18:28;;;;;;;8.30;4.85;;;;;;;18.74;49.55;99298.50;5074121;28;20057;-37
2022/09/13 04:20:56;;;;;;;8.68;4.03;;;;;;;19.14;48.82;99300.44;5073805;28;20047;-36
2022/09/13 04:23:23;;;;;;;4.07;3.65;;;;;;;19.47;48.12;99306.31;5073750;28;20024;-36
2022/09/13 04:25:50;;;;;;;4.53;3.40;;;;;;;19.85;47.23;99298.69;5073824;28;20024;-35
2022/09/13 04:28:17;;;;;;;5.57;3.50;;;;;;;19.70;47.47;99301.41;5073836;28;20094;-35
2022/09/13 04:30:44;;;;;;;8.93;3.80;;;;;;;19.89;46.43;99310.56;5074304;28;20030;-36
2022/09/13 04:33:09;;;;;;;4.00;3.53;;;;;;;20.16;45.98;99301.25;5073181;28;20035;-37
2022/09/13 04:35:35;;;;;;;5.13;3.70;;;;;;;20.04;45.85;99306.19;5073353;28;20036;-37
2022/09/13 04:38:00;;;;;;;6.85;3.53;;;;;;;20.25;45.44;99298.81;5073985;28;20029;-37
2022/09/13 04:40:25;;;;;;;6.32;3.90;;;;;;;20.22;45.35;99300.19;5073435;28;20112;-36
2022/09/13 04:42:51;;;;;;;3.92;3.45;;;;;;;20.61;45.56;99304.03;5073023;28;20235;-37
2022/09/13 04:45:16;;;;;;;12.55;8.90;;;;;;;21.01;44.65;99310.22;5073401;28;20028;-37
2022/09/13 04:47:44;;;;;;;8.38;4.55;;;;;;;20.70;45.13;99316.66;5073040;28;20035;-37
2022/09/13 04:50:09;;;;;;;6.40;4.53;;;;;;;21.37;43.72;99318.84;5073322;28;20063;-38
2022/09/13 04:52:35;;;;;;;5.25;3.53;;;;;;;21.31;44.02;99311.06;5074064;28;20474;-37
2022/09/13 04:55:01;;;;;;;5.45;3.80;;;;;;;21.64;42.87;99306.69;5072962;28;20024;-36
2022/09/13 04:57:28;;;;;;;7.35;3.55;;;;;;;21.64;43.03;99314.81;5072277;28;20407;-36
2022/09/13 04:59:53;;;;;;;4.60;3.60;;;;;;;21.50;43.50;99330.94;5073287;28;20033;-36
2022/09/13 05:02:18;;;;;;;7.68;3.80;;;;;;;21.38;43.66;99322.34;5063922;28;20125;-36
2022/09/13 05:04:44;;;;;;;5.90;3.70;;;;;;;22.25;42.03;99329.56;5052851;28;20057;-37
2022/09/13 05:07:09;;;;;;;5.10;2.92;;;;;;;22.84;43.11;99325.47;5052131;28;20140;-37
2022/09/13 05:09:35;;;;;;;8.18;5.25;;;;;;;23.08;41.39;99329.22;5045918;28;20039;-38
2022/09/13 05:12:00;;;;;;;8.00;5.15;;;;;;;23.42;40.15;99323.50;5050005;28;20058;-36
2022/09/13 05:14:26;;;;;;;5.82;4.25;;;;;;;23.38;39.92;99319.75;5053070;28;20465;-37
2022/09/13 05:16:51;;;;;;;8.93;6.32;;;;;;;23.47;40.08;99328.00;5052778;28;20032;-36
2022/09/13 05:19:17;;;;;;;7.90;4.40;;;;;;;23.80;39.46;99329.59;5050771;28;20366;-36
2022/09/13 05:21:42;;;;;;;6.32;4.32;;;;;;;24.12;38.78;99327.88;5052726;28;20119;-36
2022/09/13 05:24:08;;;;;;;6.30;3.38;;;;;;;24.47;37.66;99324.69;5051619;28;20035;-44
2022/09/13 05:26:34;;;;;;;6.18;3.50;;;;;;;23.91;38.05;99332.09;5052352;28;20421;-42
2022/09/13 05:29:00;;;;;;;4.50;3.20;;;;;;;22.74;40.25;99339.19;5052771;28;20101;-36
2022/09/13 05:31:29;;;;;;;5.32;3.10;;;;;;;23.56;39.27;99331.66;5052942;28;20063;-36
2022/09/13 05:34:01;;;;;;;7.43;3.47;;;;;;;24.27;38.23;99329.44;5051997;28;20028;-37
2022/09/13 05:36:26;;;;;;;4.82;3.20;;;;;;;24.82;37.05;99328.53;5052254;28;20115;-36
2022/09/13 05:38:53;;;;;;;8.07;3.22;;;;;;;25.24;36.44;99331.91;5052257;28;20059;-38
2022/09/13 05:41:19;;;;;;;7.28;3.50;;;;;;;24.58;37.62;99326.91;5051665;28;20025;-37
2022/09/13 05:43:44;;;;;;;7.22;4.20;;;;;;;24.96;36.83;99328.50;5052145;28;20032;-37
2022/09/13 05:46:12;;;;;;;5.10;4.00;;;;;;;25.36;36.83;99325.91;5052573;28;20488;-36
2022/09/13 05:48:38;;;;;;;7.82;3.67;;;;;;;25.48;36.49;99325.31;5052506;28;20029;-37
2022/09/13 05:51:12;;;;;;;8.45;3.97;;;;;;;25.46;36.36;99320.19;5052102;28;20060;-37
2022/09/13 05:53:38;;;;;;;11.25;3.60;;;;;;;25.12;36.61;99321.56;5051834;28;20028;-37
2022/09/13 05:56:05;;;;;;;4.47;3.35;;;;;;;25.08;36.99;99320.56;5052409;28;20025;-36
2022/09/13 05:58:32;;;;;;;9.10;3.30;;;;;;;25.44;36.71;99319.69;5052186;28;20028;-36
2022/09/13 06:00:58;;;;;;;4.85;3.30;;;;;;;25.69;35.97;99318.19;5051751;28;20047;-37
2022/09/13 06:03:23;;;;;;;6.60;3.58;;;;;;;25.76;35.73;99317.75;5069859;28;20020;-36
2022/09/13 06:05:49;;;;;;;4.70;3.33;;;;;;;26.32;35.55;99334.44;5071698;28;20029;-37
2022/09/13 06:08:15;;;;;;;4.53;3.70;;;;;;;25.81;36.18;99316.78;5071699;28;20052;-37
2022/09/13 06:10:40;;;;;;;7.70;3.40;;;;;;;26.83;34.86;99327.44;5071889;28;20032;-36
2022/09/13 06:13:06;;;;;;;12.18;3.90;;;;;;;25.77;36.00;99318.56;5071327;28;20039;-43
2022/09/13 06:15:31;;;;;;;6.65;3.50;;;;;;;26.62;34.92;99326.50;5071681;28;20344;-43
2022/09/13 06:17:57;;;;;;;8.07;3.40;;;;;;;25.86;35.74;99324.84;5063513;28;20045;-44
2022/09/13 06:20:23;;;;;;;5.15;3.35;;;;;;;26.27;35.16;99340.88;5051190;28;20131;-45
2022/09/13 06:22:48;;;;;;;3.70;3.08;;;;;;;25.77;36.12;99330.25;5040392;28;20021;-45
2022/09/13 06:25:15;;;;;;;4.93;3.30;;;;;;;25.42;36.33;99323.81;5050937;28;20028;-43
2022/09/13 06:27:40;;;;;;;3.70;3.30;;;;;;;26.15;35.13;99324.31;5034576;28;20033;-43
2022/09/13 06:30:10;;;;;;;5.15;4.00;;;;;;;25.77;35.58;99340.34;5030768;28;20043;-44
2022/09/13 06:32:36;;;;;;;6.20;3.42;;;;;;;25.23;36.60;99337.69;5030903;28;20048;-44
2022/09/13 06:35:01;;;;;;;8.77;3.40;;;;;;;25.78;35.84;99339.22;5030527;28;20139;-43
2022/09/13 06:37:27;;;;;;;7.72;3.33;;;;;;;25.49;36.27;99329.63;5030195;28;20026;-45
2022/09/13 06:39:52;;;;;;;13.23;3.50;;;;;;;25.53;36.29;99345.06;5030507;28;20029;-44
2022/09/13 06:42:18;;;;;;;14.55;3.67;;;;;;;25.57;36.06;99342.50;5030062;28;20051;-42
2022/09/13 06:44:44;;;;;;;15.77;3.83;;;;;;;25.46;36.21;99341.16;5029244;28;20025;-44
2022/09/13 06:47:11;;;;;;;9.05;3.30;;;;;;;25.40;36.05;99354.13;5030071;28;20403;-47
2022/09/13 06:49:37;;;;;;;15.35;3.83;;;;;;;25.69;35.66;99344.66;5030247;28;20095;-45
2022/09/13 06:52:03;;;;;;;24.30;4.95;;;;;;;25.89;35.20;99340.53;5030271;28;20029;-45
2022/09/13 06:54:28;;;;;;;12.88;3.55;;;;;;;25.61;35.43;99348.94;5029416;28;20431;-47
2022/09/13 06:56:54;;;;;;;16.38;4.60;;;;;;;26.17;35.04;99353.97;5043885;28;20051;-44
2022/09/13 06:59:19;;;;;;;28.85;8.57;;;;;;;26.75;34.53;99352.81;5050269;28;20547;-44
2022/09/13 07:01:45;;;;;;;17.25;5.85;;;;;;;27.38;33.10;99352.44;5054710;28;20028;-43
2022/09/13 07:04:18;;;;;;;8.13;3.90;;;;;;;27.99;32.08;99349.53;5069867;28;20036;-47
2022/09/13 07:06:46;;;;;;;7.28;3.45;;;;;;;28.43;31.70;99350.88;5068635;28;20024;-45
2022/09/13 07:09:20;;;;;;;6.22;3.42;;;;;;;27.27;32.32;99357.47;5070201;28;20033;-43
2022/09/13 07:11:47;;;;;;;12.23;3.15;;;;;;;26.89;33.41;99369.81;5070199;28;20028;-43
2022/09/13 07:14:18;;;;;;;5.18;2.92;;;;;;;26.80;33.49;99360.03;5070334;28;20024;-44
2022/09/13 07:16:45;;;;;;;6.25;2.90;;;;;;;26.41;33.86;99357.09;5069447;28;20020;-43
2022/09/13 07:19:21;;;;;;;8.15;2.88;;;;;;;26.62;33.81;99354.56;5068934;28;20105;-44
2022/09/13 07:21:48;;;;;;;4.10;2.70;;;;;;;26.72;33.70;99367.88;5069648;28;20496;-44
2022/09/13 07:24:14;;;;;;;7.70;3.45;;;;;;;26.84;33.55;99364.50;5069313;28;20400;-43
2022/09/13 07:26:40;;;;;;;5.63;3.03;;;;;;;26.96;33.23;99374.81;5069605;28;20020;-43
2022/09/13 07:29:08;;;;;;;11.40;3.30;;;;;;;27.65;32.71;99378.59;5070078;28;20086;-44
2022/09/13 07:31:39;;;;;;;9.13;3.15;;;;;;;28.04;31.83;99371.22;5069836;28;20069;-43
2022/09/13 07:34:13;;;;;;;11.98;3.58;;;;;;;27.86;32.19;99371.25;5069124;28;20027;-45
2022/09/13 07:36:38;;;;;;;10.38;2.95;;;;;;;27.54;32.53;99369.91;5069555;28;20115;-42
2022/09/13 07:39:04;;;;;;;6.68;2.60;;;;;;;28.00;32.01;99371.06;5069753;28;20021;-45
2022/09/13 07:41:31;;;;;;;6.55;2.88;;;;;;;28.45;30.90;99369.69;5069837;28;20028;-45
2022/09/13 07:43:57;;;;;;;4.28;3.08;;;;;;;28.38;30.86;99367.47;5069300;28;20413;-43
2022/09/13 07:46:25;;;;;;;6.60;2.70;;;;;;;27.57;32.27;99374.75;5062436;28;20027;-44
2022/09/13 07:48:56;;;;;;;6.70;2.55;;;;;;;28.02;31.55;99366.06;5049713;28;20017;-45
2022/09/13 07:51:24;;;;;;;9.60;2.67;;;;;;;28.22;31.05;99363.72;5049796;28;20021;-46
2022/09/13 07:53:53;;;;;;;8.02;3.20;;;;;;;28.03;31.35;99364.16;5049605;28;20029;-45
2022/09/13 07:56:21;;;;;;;4.05;2.50;;;;;;;28.23;31.08;99365.31;5049674;28;20048;-43
2022/09/13 07:58:48;;;;;;;10.80;3.37;;;;;;;27.77;31.65;99381.41;5049271;28;20077;-45
2022/09/13 08:01:17;;;;;;;11.52;3.03;;;;;;;27.87;31.38;99372.06;5049247;28;20373;-46
2022/09/13 08:03:43;;;;;;;5.20;3.15;;;;;;;27.72;31.70;99369.88;5049129;28;20035;-44
2022/09/13 08:06:09;;;;;;;9.75;3.00;;;;;;;28.34;30.61;99363.00;5049271;28;20480;-43
2022/09/13 08:08:36;;;;;;;9.35;2.67;;;;;;;27.80;31.36;99366.31;5048928;28;20013;-45
2022/09/13 08:11:03;;;;;;;8.00;2.53;;;;;;;27.60;31.25;99370.56;5049292;28;20048;-46
2022/09/13 08:13:31;;;;;;;5.38;2.50;;;;;;;27.51;31.49;99359.63;5049204;28;20029;-45
2022/09/13 08:16:00;;;;;;;5.35;2.60;;;;;;;28.09;30.79;99357.34;5049400;28;20025;-43
2022/09/13 08:18:25;;;;;;;5.93;2.60;;;;;;;28.49;30.74;99356.94;5048652;28;20117;-43
2022/09/13 08:20:55;;;;;;;7.60;2.78;;;;;;;27.60;30.77;99354.94;5048933;28;20051;-43
2022/09/13 08:23:20;;;;;;;4.93;2.50;;;;;;;27.17;30.75;99355.03;5049429;28;20029;-43
2022/09/13 08:25:46;;;;;;;6.90;2.60;;;;;;;27.06;31.08;99358.09;5049404;28;20465;-46
2022/09/13 08:28:16;;;;;;;5.32;2.70;;;;;;;28.22;29.68;99350.84;5049500;28;20079;-45
2022/09/13 08:30:42;;;;;;;6.25;2.70;;;;;;;28.15;30.63;99350.56;5048670;28;20025;-42
2022/09/13 08:33:09;;;;;;;2.90;2.00;;;;;;;27.91;30.35;99348.41;5051782;28;20024;-43
2022/09/13 08:35:35;;;;;;;5.20;2.33;;;;;;;28.27;30.31;99341.63;5052850;28;20037;-44
2022/09/13 08:38:01;;;;;;;4.40;2.22;;;;;;;28.03;30.59;99351.28;5052811;28;20035;-45
2022/09/13 08:40:33;;;;;;;4.68;2.47;;;;;;;27.85;30.63;99360.66;5052382;28;20028;-44
2022/09/13 08:43:28;;;;;;;5.07;2.10;;;;;;;27.89;30.56;99347.94;5052751;28;20025;-45
2022/09/13 08:46:05;;;;;;;3.28;2.13;;;;;;;27.92;30.62;99349.25;5052446;28;20416;-43
2022/09/13 08:48:38;;;;;;;2.90;2.00;;;;;;;27.87;29.74;99342.81;5052651;28;20025;-42
2022/09/13 08:51:09;;;;;;;7.95;2.67;;;;;;;28.52;28.89;99352.78;5052257;28;20029;-42
2022/09/13 08:53:46;;;;;;;4.28;2.03;;;;;;;29.16;27.68;99352.41;5051815;28;20554;-45
2022/09/13 08:56:28;;;;;;;4.95;2.00;;;;;;;29.32;26.37;99338.91;5051915;28;20032;-44
2022/09/13 08:59:28;;;;;;;5.55;2.42;;;;;;;28.23;27.60;99349.69;5052110;28;20013;-45
2022/09/13 09:02:19;;;;;;;2.97;2.17;;;;;;;29.01;27.25;99344.81;5054525;28;20433;-45
2022/09/13 09:05:14;;;;;;;2.25;1.83;;;;;;;28.87;27.31;99344.31;5050550;28;20118;-45
2022/09/13 09:07:44;;;;;;;4.55;1.90;;;;;;;29.33;26.17;99339.69;5052204;28;20028;-46
2022/09/13 09:10:40;;;;;;;3.33;1.83;;;;;;;30.02;24.77;99305.16;5051724;28;20033;-43
2022/09/13 09:13:14;;;;;;;2.22;1.95;;;;;;;29.89;26.14;99341.97;5050128;28;20037;-45
2022/09/13 09:15:45;;;;;;;2.65;1.90;;;;;;;29.36;26.19;99330.78;5052394;28;20036;-45
2022/09/13 09:18:19;;;;;;;4.18;2.00;;;;;;;29.42;26.23;99324.75;5051915;28;20049;-45
2022/09/13 09:20:48;;;;;;;2.53;1.95;;;;;;;29.14;26.71;99334.72;5051623;28;20032;-46
2022/09/13 09:23:17;;;;;;;2.33;2.00;;;;;;;29.17;26.45;99332.13;5051625;28;20048;-44
2022/09/13 09:25:43;;;;;;;3.78;2.20;;;;;;;29.02;26.66;99336.25;5050955;28;20025;-44
2022/09/13 09:28:12;;;;;;;2.78;2.10;;;;;;;28.76;27.11;99330.22;5051892;28;20021;-43
2022/09/13 09:31:01;;;;;;;4.82;2.30;;;;;;;28.81;26.75;99327.28;5051960;28;20394;-46
2022/09/13 09:33:51;;;;;;;2.50;2.03;;;;;;;28.20;27.56;99320.28;5051736;28;20040;-45
2022/09/13 09:36:39;;;;;;;8.40;2.50;;;;;;;27.68;28.00;99332.28;5051931;28;20028;-45
2022/09/13 09:39:10;;;;;;;8.40;2.20;;;;;;;27.35;28.64;99333.97;5052072;28;20040;-45
2022/09/13 09:41:37;;;;;;;3.83;2.05;;;;;;;27.47;28.64;99331.38;5050022;28;20114;-44
2022/09/13 09:44:14;;;;;;;2.97;2.15;;;;;;;27.19;28.55;99331.75;5051145;28;20025;-43
2022/09/13 09:46:42;;;;;;;6.80;3.13;;;;;;;27.74;28.15;99321.13;5051008;28;20082;-44
2022/09/13 09:52:13;;;;;;;2.88;2.10;;;;;;;27.48;28.60;99341.19;5031601;28;20559;-44
2022/09/13 09:54:40;;;;;;;5.63;2.40;;;;;;;27.44;28.61;99340.22;5031276;28;20029;-43
2022/09/13 09:57:06;;;;;;;6.35;2.80;;;;;;;27.69;28.24;99335.81;5031045;28;20062;-43
2022/09/13 09:59:33;;;;;;;4.65;2.20;;;;;;;27.79;28.18;99334.63;5031166;28;20078;-46
2022/09/13 10:02:17;;;;;;;3.85;2.20;;;;;;;28.31;27.73;99331.66;5037900;28;20099;-45
2022/09/13 10:04:53;;;;;;;3.95;2.00;;;;;;;27.86;28.59;99332.19;5051218;28;20574;-42
2022/09/13 10:07:26;;;;;;;5.57;1.83;;;;;;;27.96;28.32;99333.78;5051307;28;20432;-44
2022/09/13 10:09:58;;;;;;;2.65;1.98;;;;;;;27.51;28.03;99332.31;5051173;28;20029;-43
2022/09/13 10:12:28;;;;;;;5.45;2.08;;;;;;;27.52;27.90;99331.19;5050835;28;20449;-43
2022/09/13 10:15:12;;;;;;;3.45;1.80;;;;;;;27.71;27.85;99332.75;5050831;28;20036;-43
2022/09/13 10:17:38;;;;;;;3.35;1.73;;;;;;;27.63;27.41;99326.97;5050289;28;20488;-44
2022/09/13 10:20:13;;;;;;;3.65;2.03;;;;;;;27.87;27.32;99318.19;5050982;28;20025;-43
2022/09/13 10:22:39;;;;;;;2.92;2.00;;;;;;;28.20;26.82;99316.75;5050852;28;20033;-45
2022/09/13 10:25:14;;;;;;;4.43;2.85;;;;;;;28.55;27.30;99314.59;5050296;28;20040;-47
2022/09/13 10:27:46;;;;;;;4.53;1.95;;;;;;;28.17;26.45;99306.47;5050687;28;20039;-46
2022/09/13 10:30:47;;;;;;;2.85;1.90;;;;;;;27.63;28.02;99302.38;5050555;28;20048;-45
2022/09/13 10:33:29;;;;;;;8.48;2.38;;;;;;;27.15;29.09;99308.94;5050587;28;20545;-43
2022/09/13 10:35:59;;;;;;;3.40;2.10;;;;;;;27.59;28.76;99293.25;5050039;28;20074;-46
2022/09/13 10:38:29;;;;;;;3.72;2.00;;;;;;;27.93;28.19;99286.03;5049983;28;20082;-47
2022/09/13 10:40:55;;;;;;;6.20;2.00;;;;;;;28.03;28.14;99291.13;5050005;28;20032;-44
2022/09/13 10:43:23;;;;;;;2.63;1.83;;;;;;;27.75;27.37;99285.28;5049659;28;20016;-47
2022/09/13 10:45:50;;;;;;;4.20;2.10;;;;;;;28.03;27.26;99288.38;5049968;28;20128;-44
2022/09/13 10:48:17;;;;;;;4.03;2.10;;;;;;;28.63;26.84;99283.59;5050708;28;20075;-47
2022/09/13 10:51:17;;;;;;;8.13;2.40;;;;;;;28.78;27.58;99287.66;5050717;28;20056;-44
2022/09/13 10:53:42;;;;;;;4.18;1.80;;;;;;;28.66;26.48;99287.63;5049285;28;20056;-43
2022/09/13 10:56:24;;;;;;;3.03;2.08;;;;;;;28.54;26.49;99282.09;5049911;28;20310;-44
2022/09/13 10:58:50;;;;;;;8.57;2.33;;;;;;;28.76;26.89;99278.19;5050441;28;20499;-44
2022/09/13 11:01:37;;;;;;;5.90;2.00;;;;;;;28.47;26.78;99272.47;5051180;28;20201;-45
2022/09/13 11:04:31;;;;;;;4.03;2.08;;;;;;;27.87;26.75;99273.63;5070211;28;20119;-44
2022/09/13 11:06:59;;;;;;;3.97;1.85;;;;;;;28.35;26.56;99271.59;5070497;28;20103;-45
2022/09/13 11:09:46;;;;;;;4.90;2.05;;;;;;;28.87;26.32;99265.69;5070385;28;20051;-43
2022/09/13 11:12:30;;;;;;;8.50;2.30;;;;;;;28.64;26.12;99268.81;5070620;28;20039;-43
2022/09/13 11:14:55;;;;;;;6.78;1.90;;;;;;;28.44;26.14;99267.66;5070317;28;20028;-44
2022/09/13 11:17:23;;;;;;;9.32;2.00;;;;;;;28.88;26.00;99261.81;5070128;28;20031;-44
2022/09/13 11:20:11;;;;;;;12.02;2.25;;;;;;;29.16;26.01;99262.03;5069767;28;20045;-44
2022/09/13 11:22:48;;;;;;;3.83;1.80;;;;;;;29.34;25.85;99251.69;5069890;28;20021;-44
2022/09/13 11:25:38;;;;;;;3.45;1.80;;;;;;;29.23;25.43;99253.25;5070267;28;20024;-44
2022/09/13 11:28:35;;;;;;;4.28;1.98;;;;;;;29.43;25.56;99252.38;5070009;28;20500;-44
2022/09/13 11:31:18;;;;;;;5.43;2.08;;;;;;;29.85;25.43;99253.28;5070122;28;20021;-45
2022/09/13 11:34:07;;;;;;;4.55;1.50;;;;;;;29.86;24.60;99243.94;5069808;28;20092;-46
2022/09/13 11:36:48;;;;;;;3.78;1.98;;;;;;;29.60;24.82;99239.56;5070050;28;20052;-45
2022/09/13 11:39:26;;;;;;;7.90;1.90;;;;;;;29.75;25.41;99240.84;5070119;28;20016;-43
2022/09/13 11:42:22;;;;;;;2.67;1.67;;;;;;;29.36;25.31;99232.97;5069991;28;20099;-43
2022/09/13 11:45:06;;;;;;;4.55;1.80;;;;;;;28.10;25.58;99235.88;5069734;28;20111;-42
2022/09/13 11:48:03;;;;;;;3.83;1.75;;;;;;;27.60;25.88;99239.38;5069793;28;20035;-43
2022/09/13 11:50:58;;;;;;;6.10;1.50;;;;;;;27.82;25.26;99219.19;5046927;28;20132;-44
2022/09/13 11:54:10;;;;;;;4.93;1.90;;;;;;;28.64;24.80;99230.47;5069341;28;20028;-42
2022/09/13 11:56:48;;;;;;;2.55;1.83;;;;;;;27.93;25.85;99230.53;5046596;28;20121;-43
2022/09/13 11:59:32;;;;;;;2.97;1.60;;;;;;;27.97;25.78;99231.47;5069695;28;20035;-43
2022/09/13 12:02:09;;;;;;;4.95;1.58;;;;;;;28.13;25.91;99218.81;5069264;28;20038;-44